sensor_id;sensor_type;location;lat;lon;timestamp;temperature;humidity
57636;DHT22;43465;50.728;4.160;2022-07-31T00:00:05;21.80;89.90
57636;DHT22;43465;50.728;4.160;2022-07-31T00:02:31;21.70;90.10
57636;DHT22;43465;50.728;4.160;2022-07-31T00:04:57;21.60;90.30
57636;DHT22;43465;50.728;4.160;2022-07-31T00:07:22;21.60;90.50
57636;DHT22;43465;50.728;4.160;2022-07-31T00:09:48;21.50;90.70
57636;DHT22;43465;50.728;4.160;2022-07-31T00:12:14;21.50;90.70
57636;DHT22;43465;50.728;4.160;2022-07-31T00:14:40;21.30;91.00
57636;DHT22;43465;50.728;4.160;2022-07-31T00:17:05;21.20;91.40
57636;DHT22;43465;50.728;4.160;2022-07-31T00:19:31;21.00;91.70
57636;DHT22;43465;50.728;4.160;2022-07-31T00:21:57;20.90;92.10
57636;DHT22;43465;50.728;4.160;2022-07-31T00:24:23;20.80;92.50
57636;DHT22;43465;50.728;4.160;2022-07-31T00:26:49;20.70;92.70
57636;DHT22;43465;50.728;4.160;2022-07-31T00:29:14;20.50;93.00
57636;DHT22;43465;50.728;4.160;2022-07-31T00:31:40;20.40;93.40
57636;DHT22;43465;50.728;4.160;2022-07-31T00:34:06;20.30;93.50
57636;DHT22;43465;50.728;4.160;2022-07-31T00:36:32;20.10;94.30
57636;DHT22;43465;50.728;4.160;2022-07-31T00:38:57;20.00;94.70
57636;DHT22;43465;50.728;4.160;2022-07-31T00:41:23;19.80;95.30
57636;DHT22;43465;50.728;4.160;2022-07-31T00:43:49;19.70;96.00
57636;DHT22;43465;50.728;4.160;2022-07-31T00:46:14;19.70;96.50
57636;DHT22;43465;50.728;4.160;2022-07-31T00:48:40;19.60;97.10
57636;DHT22;43465;50.728;4.160;2022-07-31T00:51:06;19.50;97.80
57636;DHT22;43465;50.728;4.160;2022-07-31T00:53:32;19.50;98.40
57636;DHT22;43465;50.728;4.160;2022-07-31T00:55:57;19.40;98.90
57636;DHT22;43465;50.728;4.160;2022-07-31T00:58:23;19.40;99.10
57636;DHT22;43465;50.728;4.160;2022-07-31T01:00:50;19.30;99.80
57636;DHT22;43465;50.728;4.160;2022-07-31T01:03:15;19.20;99.90
57636;DHT22;43465;50.728;4.160;2022-07-31T01:05:42;19.20;99.90
57636;DHT22;43465;50.728;4.160;2022-07-31T01:08:08;19.10;99.90
57636;DHT22;43465;50.728;4.160;2022-07-31T01:10:47;19.10;99.90
57636;DHT22;43465;50.728;4.160;2022-07-31T01:13:19;19.00;99.90
57636;DHT22;43465;50.728;4.160;2022-07-31T01:15:47;19.00;99.90
57636;DHT22;43465;50.728;4.160;2022-07-31T01:18:14;19.00;99.90
57636;DHT22;43465;50.728;4.160;2022-07-31T01:20:42;19.00;99.90
57636;DHT22;43465;50.728;4.160;2022-07-31T01:23:27;18.90;99.90
57636;DHT22;43465;50.728;4.160;2022-07-31T01:31:48;18.70;99.90
57636;DHT22;43465;50.728;4.160;2022-07-31T01:34:41;18.70;99.90
57636;DHT22;43465;50.728;4.160;2022-07-31T01:37:16;18.70;99.90
57636;DHT22;43465;50.728;4.160;2022-07-31T01:39:50;18.70;99.90
57636;DHT22;43465;50.728;4.160;2022-07-31T01:42:18;18.70;99.90
57636;DHT22;43465;50.728;4.160;2022-07-31T01:44:48;18.70;99.90
57636;DHT22;43465;50.728;4.160;2022-07-31T01:47:19;18.70;99.90
57636;DHT22;43465;50.728;4.160;2022-07-31T01:49:48;18.70;99.90
57636;DHT22;43465;50.728;4.160;2022-07-31T01:52:14;18.70;99.90
57636;DHT22;43465;50.728;4.160;2022-07-31T01:54:42;18.80;99.90
57636;DHT22;43465;50.728;4.160;2022-07-31T01:57:10;19.00;99.90
57636;DHT22;43465;50.728;4.160;2022-07-31T01:59:37;19.10;99.90
57636;DHT22;43465;50.728;4.160;2022-07-31T02:02:04;19.20;99.90
57636;DHT22;43465;50.728;4.160;2022-07-31T02:04:30;19.30;99.90
57636;DHT22;43465;50.728;4.160;2022-07-31T02:06:57;19.40;99.90
57636;DHT22;43465;50.728;4.160;2022-07-31T02:09:24;19.50;99.90
57636;DHT22;43465;50.728;4.160;2022-07-31T02:11:51;19.50;99.90
57636;DHT22;43465;50.728;4.160;2022-07-31T02:14:18;19.50;99.90
57636;DHT22;43465;50.728;4.160;2022-07-31T02:16:46;19.60;99.90
57636;DHT22;43465;50.728;4.160;2022-07-31T02:19:13;19.60;99.90
57636;DHT22;43465;50.728;4.160;2022-07-31T02:21:40;19.70;99.90
57636;DHT22;43465;50.728;4.160;2022-07-31T02:24:06;19.70;99.90
57636;DHT22;43465;50.728;4.160;2022-07-31T02:26:39;19.70;99.90
57636;DHT22;43465;50.728;4.160;2022-07-31T02:29:06;19.60;99.90
57636;DHT22;43465;50.728;4.160;2022-07-31T02:31:34;19.70;99.90
57636;DHT22;43465;50.728;4.160;2022-07-31T02:34:00;19.60;99.90
57636;DHT22;43465;50.728;4.160;2022-07-31T02:36:27;19.60;99.90
57636;DHT22;43465;50.728;4.160;2022-07-31T02:38:55;19.70;99.90
57636;DHT22;43465;50.728;4.160;2022-07-31T02:41:22;19.60;99.90
57636;DHT22;43465;50.728;4.160;2022-07-31T02:43:48;19.60;99.90
57636;DHT22;43465;50.728;4.160;2022-07-31T02:46:16;19.60;99.90
57636;DHT22;43465;50.728;4.160;2022-07-31T02:48:42;19.60;99.90
57636;DHT22;43465;50.728;4.160;2022-07-31T02:51:09;19.70;99.90
57636;DHT22;43465;50.728;4.160;2022-07-31T02:53:35;19.60;99.90
57636;DHT22;43465;50.728;4.160;2022-07-31T02:56:02;19.60;99.90
57636;DHT22;43465;50.728;4.160;2022-07-31T02:58:29;19.60;99.90
57636;DHT22;43465;50.728;4.160;2022-07-31T03:01:03;19.60;99.90
57636;DHT22;43465;50.728;4.160;2022-07-31T03:03:29;19.60;99.90
57636;DHT22;43465;50.728;4.160;2022-07-31T03:05:55;19.60;99.90
57636;DHT22;43465;50.728;4.160;2022-07-31T03:08:20;19.70;99.90
57636;DHT22;43465;50.728;4.160;2022-07-31T03:10:46;19.70;99.90
57636;DHT22;43465;50.728;4.160;2022-07-31T03:13:13;19.70;99.90
57636;DHT22;43465;50.728;4.160;2022-07-31T03:15:40;19.70;99.90
57636;DHT22;43465;50.728;4.160;2022-07-31T03:18:07;19.70;99.90
57636;DHT22;43465;50.728;4.160;2022-07-31T03:20:36;19.60;99.90
57636;DHT22;43465;50.728;4.160;2022-07-31T03:23:04;19.60;99.90
57636;DHT22;43465;50.728;4.160;2022-07-31T03:25:32;19.60;99.90
57636;DHT22;43465;50.728;4.160;2022-07-31T03:27:57;19.60;99.90
57636;DHT22;43465;50.728;4.160;2022-07-31T03:30:25;19.60;99.90
57636;DHT22;43465;50.728;4.160;2022-07-31T03:32:51;19.60;99.90
57636;DHT22;43465;50.728;4.160;2022-07-31T03:35:17;19.60;99.90
57636;DHT22;43465;50.728;4.160;2022-07-31T03:37:43;19.60;99.90
57636;DHT22;43465;50.728;4.160;2022-07-31T03:40:10;19.60;99.90
57636;DHT22;43465;50.728;4.160;2022-07-31T03:42:36;19.70;99.90
57636;DHT22;43465;50.728;4.160;2022-07-31T03:45:03;19.60;99.90
57636;DHT22;43465;50.728;4.160;2022-07-31T03:47:29;19.60;99.90
57636;DHT22;43465;50.728;4.160;2022-07-31T03:49:55;19.60;99.90
57636;DHT22;43465;50.728;4.160;2022-07-31T03:52:21;19.60;99.90
57636;DHT22;43465;50.728;4.160;2022-07-31T03:54:47;19.70;99.90
57636;DHT22;43465;50.728;4.160;2022-07-31T03:57:15;19.70;99.90
57636;DHT22;43465;50.728;4.160;2022-07-31T03:59:41;19.70;99.90
57636;DHT22;43465;50.728;4.160;2022-07-31T04:02:08;19.70;99.90
57636;DHT22;43465;50.728;4.160;2022-07-31T04:04:36;19.70;99.90
57636;DHT22;43465;50.728;4.160;2022-07-31T04:07:03;19.70;99.90
57636;DHT22;43465;50.728;4.160;2022-07-31T04:09:28;19.60;99.90
57636;DHT22;43465;50.728;4.160;2022-07-31T04:11:54;19.60;99.90
57636;DHT22;43465;50.728;4.160;2022-07-31T04:14:20;19.70;99.90
57636;DHT22;43465;50.728;4.160;2022-07-31T04:16:45;19.60;99.90
57636;DHT22;43465;50.728;4.160;2022-07-31T04:19:12;19.60;99.90
57636;DHT22;43465;50.728;4.160;2022-07-31T04:21:38;19.60;99.90
57636;DHT22;43465;50.728;4.160;2022-07-31T04:24:04;19.60;99.90
57636;DHT22;43465;50.728;4.160;2022-07-31T04:26:29;19.60;99.90
57636;DHT22;43465;50.728;4.160;2022-07-31T04:28:55;19.70;99.90
57636;DHT22;43465;50.728;4.160;2022-07-31T04:31:21;19.70;99.90
57636;DHT22;43465;50.728;4.160;2022-07-31T04:33:46;19.70;99.90
57636;DHT22;43465;50.728;4.160;2022-07-31T04:36:13;19.70;99.90
57636;DHT22;43465;50.728;4.160;2022-07-31T04:38:39;19.70;99.90
57636;DHT22;43465;50.728;4.160;2022-07-31T04:41:05;19.70;99.90
57636;DHT22;43465;50.728;4.160;2022-07-31T04:43:30;19.70;99.90
57636;DHT22;43465;50.728;4.160;2022-07-31T04:45:56;19.70;99.90
57636;DHT22;43465;50.728;4.160;2022-07-31T04:48:22;19.70;99.90
57636;DHT22;43465;50.728;4.160;2022-07-31T04:50:48;19.70;99.90
57636;DHT22;43465;50.728;4.160;2022-07-31T04:53:14;19.70;99.90
57636;DHT22;43465;50.728;4.160;2022-07-31T04:55:39;19.70;99.90
57636;DHT22;43465;50.728;4.160;2022-07-31T04:58:06;19.70;99.90
57636;DHT22;43465;50.728;4.160;2022-07-31T05:00:31;19.70;99.90
57636;DHT22;43465;50.728;4.160;2022-07-31T05:02:57;19.70;99.90
57636;DHT22;43465;50.728;4.160;2022-07-31T05:05:23;19.70;99.90
57636;DHT22;43465;50.728;4.160;2022-07-31T05:07:49;19.70;99.90
57636;DHT22;43465;50.728;4.160;2022-07-31T05:10:14;19.70;99.90
57636;DHT22;43465;50.728;4.160;2022-07-31T05:13:00;19.70;99.90
57636;DHT22;43465;50.728;4.160;2022-07-31T05:15:25;19.80;99.90
57636;DHT22;43465;50.728;4.160;2022-07-31T05:17:51;19.80;99.90
57636;DHT22;43465;50.728;4.160;2022-07-31T05:20:17;19.70;99.90
57636;DHT22;43465;50.728;4.160;2022-07-31T05:22:43;19.70;99.90
57636;DHT22;43465;50.728;4.160;2022-07-31T05:25:09;19.70;99.90
57636;DHT22;43465;50.728;4.160;2022-07-31T05:27:34;19.70;99.90
57636;DHT22;43465;50.728;4.160;2022-07-31T05:30:00;19.70;99.90
57636;DHT22;43465;50.728;4.160;2022-07-31T05:32:26;19.70;99.90
57636;DHT22;43465;50.728;4.160;2022-07-31T05:34:51;19.80;99.90
57636;DHT22;43465;50.728;4.160;2022-07-31T05:37:17;19.80;99.90
57636;DHT22;43465;50.728;4.160;2022-07-31T05:39:42;19.80;99.90
57636;DHT22;43465;50.728;4.160;2022-07-31T05:42:08;19.90;99.90
57636;DHT22;43465;50.728;4.160;2022-07-31T05:44:34;19.90;99.90
57636;DHT22;43465;50.728;4.160;2022-07-31T05:46:59;19.90;99.90
57636;DHT22;43465;50.728;4.160;2022-07-31T05:49:25;19.90;99.90
57636;DHT22;43465;50.728;4.160;2022-07-31T05:51:53;19.90;99.90
57636;DHT22;43465;50.728;4.160;2022-07-31T05:54:19;19.90;99.90
57636;DHT22;43465;50.728;4.160;2022-07-31T05:56:45;19.90;99.90
57636;DHT22;43465;50.728;4.160;2022-07-31T05:59:11;19.90;99.90
57636;DHT22;43465;50.728;4.160;2022-07-31T06:01:38;19.90;99.90
57636;DHT22;43465;50.728;4.160;2022-07-31T06:04:03;19.90;99.90
57636;DHT22;43465;50.728;4.160;2022-07-31T06:06:29;19.90;99.90
57636;DHT22;43465;50.728;4.160;2022-07-31T06:08:55;19.90;99.90
57636;DHT22;43465;50.728;4.160;2022-07-31T06:11:21;20.00;99.90
57636;DHT22;43465;50.728;4.160;2022-07-31T06:13:46;20.10;99.90
57636;DHT22;43465;50.728;4.160;2022-07-31T06:16:13;20.10;99.90
57636;DHT22;43465;50.728;4.160;2022-07-31T06:18:39;20.20;99.90
57636;DHT22;43465;50.728;4.160;2022-07-31T06:21:05;20.30;99.90
57636;DHT22;43465;50.728;4.160;2022-07-31T06:23:30;20.50;99.90
57636;DHT22;43465;50.728;4.160;2022-07-31T06:25:56;20.50;99.90
57636;DHT22;43465;50.728;4.160;2022-07-31T06:28:22;20.60;99.90
57636;DHT22;43465;50.728;4.160;2022-07-31T06:30:48;20.80;99.90
57636;DHT22;43465;50.728;4.160;2022-07-31T06:33:13;20.90;99.90
57636;DHT22;43465;50.728;4.160;2022-07-31T06:35:39;21.00;99.90
57636;DHT22;43465;50.728;4.160;2022-07-31T06:38:05;21.10;99.90
57636;DHT22;43465;50.728;4.160;2022-07-31T06:40:30;21.10;99.90
57636;DHT22;43465;50.728;4.160;2022-07-31T06:42:56;21.10;99.90
57636;DHT22;43465;50.728;4.160;2022-07-31T06:45:21;21.10;99.90
57636;DHT22;43465;50.728;4.160;2022-07-31T06:47:47;21.10;99.90
57636;DHT22;43465;50.728;4.160;2022-07-31T06:50:13;21.10;99.90
57636;DHT22;43465;50.728;4.160;2022-07-31T06:52:39;21.20;99.90
57636;DHT22;43465;50.728;4.160;2022-07-31T06:55:06;21.10;99.90
57636;DHT22;43465;50.728;4.160;2022-07-31T06:57:36;21.20;99.90
57636;DHT22;43465;50.728;4.160;2022-07-31T07:00:04;21.30;99.90
57636;DHT22;43465;50.728;4.160;2022-07-31T07:02:30;21.30;99.90
57636;DHT22;43465;50.728;4.160;2022-07-31T07:04:55;21.30;99.90
57636;DHT22;43465;50.728;4.160;2022-07-31T07:07:21;21.20;99.90
57636;DHT22;43465;50.728;4.160;2022-07-31T07:09:47;21.40;99.90
57636;DHT22;43465;50.728;4.160;2022-07-31T07:12:12;21.40;99.90
57636;DHT22;43465;50.728;4.160;2022-07-31T07:14:38;21.60;99.90
57636;DHT22;43465;50.728;4.160;2022-07-31T07:17:04;21.70;99.90
57636;DHT22;43465;50.728;4.160;2022-07-31T07:19:30;21.80;99.90
57636;DHT22;43465;50.728;4.160;2022-07-31T07:21:56;21.90;99.90
57636;DHT22;43465;50.728;4.160;2022-07-31T07:24:23;22.00;99.90
57636;DHT22;43465;50.728;4.160;2022-07-31T07:26:48;22.10;99.90
57636;DHT22;43465;50.728;4.160;2022-07-31T07:29:14;22.20;99.90
57636;DHT22;43465;50.728;4.160;2022-07-31T07:31:39;22.30;99.90
57636;DHT22;43465;50.728;4.160;2022-07-31T07:34:05;22.40;99.90
57636;DHT22;43465;50.728;4.160;2022-07-31T07:36:34;22.50;99.90
57636;DHT22;43465;50.728;4.160;2022-07-31T07:39:00;22.60;99.90
57636;DHT22;43465;50.728;4.160;2022-07-31T07:41:26;22.70;99.90
57636;DHT22;43465;50.728;4.160;2022-07-31T07:43:52;22.80;99.90
57636;DHT22;43465;50.728;4.160;2022-07-31T07:46:19;22.90;99.90
57636;DHT22;43465;50.728;4.160;2022-07-31T07:48:45;23.00;99.90
57636;DHT22;43465;50.728;4.160;2022-07-31T07:51:10;23.10;99.90
57636;DHT22;43465;50.728;4.160;2022-07-31T07:53:36;23.10;99.90
57636;DHT22;43465;50.728;4.160;2022-07-31T07:56:02;23.20;99.90
57636;DHT22;43465;50.728;4.160;2022-07-31T07:58:28;23.30;99.90
57636;DHT22;43465;50.728;4.160;2022-07-31T08:00:54;23.20;99.90
57636;DHT22;43465;50.728;4.160;2022-07-31T08:03:19;23.40;99.90
57636;DHT22;43465;50.728;4.160;2022-07-31T08:05:45;23.50;99.90
57636;DHT22;43465;50.728;4.160;2022-07-31T08:08:11;23.70;99.90
57636;DHT22;43465;50.728;4.160;2022-07-31T08:10:36;23.80;99.90
57636;DHT22;43465;50.728;4.160;2022-07-31T08:13:04;23.90;99.90
57636;DHT22;43465;50.728;4.160;2022-07-31T08:15:30;24.00;99.90
57636;DHT22;43465;50.728;4.160;2022-07-31T08:17:56;24.10;99.90
57636;DHT22;43465;50.728;4.160;2022-07-31T08:20:22;24.10;99.90
57636;DHT22;43465;50.728;4.160;2022-07-31T08:22:48;24.10;99.70
57636;DHT22;43465;50.728;4.160;2022-07-31T08:25:13;24.20;99.70
57636;DHT22;43465;50.728;4.160;2022-07-31T08:27:39;24.20;99.20
57636;DHT22;43465;50.728;4.160;2022-07-31T08:30:05;24.20;99.20
57636;DHT22;43465;50.728;4.160;2022-07-31T08:32:31;24.30;99.80
57636;DHT22;43465;50.728;4.160;2022-07-31T08:34:56;24.40;99.00
57636;DHT22;43465;50.728;4.160;2022-07-31T08:37:22;24.40;99.00
57636;DHT22;43465;50.728;4.160;2022-07-31T08:39:49;24.30;98.60
57636;DHT22;43465;50.728;4.160;2022-07-31T08:42:17;24.20;98.80
57636;DHT22;43465;50.728;4.160;2022-07-31T08:44:44;24.20;98.50
57636;DHT22;43465;50.728;4.160;2022-07-31T08:47:12;24.20;98.20
57636;DHT22;43465;50.728;4.160;2022-07-31T08:49:42;24.20;98.80
57636;DHT22;43465;50.728;4.160;2022-07-31T08:52:10;24.20;98.40
57636;DHT22;43465;50.728;4.160;2022-07-31T08:54:36;24.20;98.60
57636;DHT22;43465;50.728;4.160;2022-07-31T08:57:02;24.30;98.10
57636;DHT22;43465;50.728;4.160;2022-07-31T08:59:29;24.40;98.20
57636;DHT22;43465;50.728;4.160;2022-07-31T09:01:55;24.40;98.40
57636;DHT22;43465;50.728;4.160;2022-07-31T09:04:24;24.40;98.20
57636;DHT22;43465;50.728;4.160;2022-07-31T09:06:50;24.30;97.80
57636;DHT22;43465;50.728;4.160;2022-07-31T09:09:16;24.20;98.00
57636;DHT22;43465;50.728;4.160;2022-07-31T09:11:47;24.20;98.80
57636;DHT22;43465;50.728;4.160;2022-07-31T09:14:22;24.40;98.30
57636;DHT22;43465;50.728;4.160;2022-07-31T09:16:48;24.40;97.80
57636;DHT22;43465;50.728;4.160;2022-07-31T09:19:14;24.50;98.50
57636;DHT22;43465;50.728;4.160;2022-07-31T09:21:41;24.70;98.20
57636;DHT22;43465;50.728;4.160;2022-07-31T09:24:08;24.90;97.40
57636;DHT22;43465;50.728;4.160;2022-07-31T09:26:36;25.10;96.90
57636;DHT22;43465;50.728;4.160;2022-07-31T09:29:03;25.10;96.80
57636;DHT22;43465;50.728;4.160;2022-07-31T09:31:34;25.00;96.60
57636;DHT22;43465;50.728;4.160;2022-07-31T09:34:00;25.00;96.80
57636;DHT22;43465;50.728;4.160;2022-07-31T09:36:26;25.10;96.90
57636;DHT22;43465;50.728;4.160;2022-07-31T09:38:52;25.20;96.70
57636;DHT22;43465;50.728;4.160;2022-07-31T09:41:21;25.30;96.10
57636;DHT22;43465;50.728;4.160;2022-07-31T09:43:54;25.40;95.90
57636;DHT22;43465;50.728;4.160;2022-07-31T09:46:21;25.40;96.50
57636;DHT22;43465;50.728;4.160;2022-07-31T09:48:51;25.30;96.40
57636;DHT22;43465;50.728;4.160;2022-07-31T09:51:17;25.40;96.00
57636;DHT22;43465;50.728;4.160;2022-07-31T09:53:45;25.40;95.10
57636;DHT22;43465;50.728;4.160;2022-07-31T09:56:11;25.40;95.80
57636;DHT22;43465;50.728;4.160;2022-07-31T09:58:39;25.30;95.80
57636;DHT22;43465;50.728;4.160;2022-07-31T10:01:08;25.30;95.80
57636;DHT22;43465;50.728;4.160;2022-07-31T10:03:36;25.40;95.90
57636;DHT22;43465;50.728;4.160;2022-07-31T10:06:04;25.50;95.90
57636;DHT22;43465;50.728;4.160;2022-07-31T10:08:33;25.70;95.40
57636;DHT22;43465;50.728;4.160;2022-07-31T10:11:04;25.90;95.30
57636;DHT22;43465;50.728;4.160;2022-07-31T10:13:32;26.00;94.80
57636;DHT22;43465;50.728;4.160;2022-07-31T10:16:00;26.00;95.00
57636;DHT22;43465;50.728;4.160;2022-07-31T10:18:27;26.10;95.40
57636;DHT22;43465;50.728;4.160;2022-07-31T10:20:55;26.30;94.00
57636;DHT22;43465;50.728;4.160;2022-07-31T10:23:22;26.30;94.00
57636;DHT22;43465;50.728;4.160;2022-07-31T10:25:56;26.20;93.80
57636;DHT22;43465;50.728;4.160;2022-07-31T10:28:23;26.00;94.30
57636;DHT22;43465;50.728;4.160;2022-07-31T10:30:49;25.70;94.50
57636;DHT22;43465;50.728;4.160;2022-07-31T10:33:16;25.50;94.70
57636;DHT22;43465;50.728;4.160;2022-07-31T10:35:57;25.40;94.70
57636;DHT22;43465;50.728;4.160;2022-07-31T10:38:29;25.30;95.20
57636;DHT22;43465;50.728;4.160;2022-07-31T10:46:57;25.40;96.00
57636;DHT22;43465;50.728;4.160;2022-07-31T10:49:52;25.40;95.80
57636;DHT22;43465;50.728;4.160;2022-07-31T10:52:27;25.60;95.50
57636;DHT22;43465;50.728;4.160;2022-07-31T10:54:58;25.70;95.70
57636;DHT22;43465;50.728;4.160;2022-07-31T10:57:31;25.90;94.70
57636;DHT22;43465;50.728;4.160;2022-07-31T11:00:18;25.90;94.80
57636;DHT22;43465;50.728;4.160;2022-07-31T11:02:45;26.00;95.00
57636;DHT22;43465;50.728;4.160;2022-07-31T11:05:18;26.00;94.50
57636;DHT22;43465;50.728;4.160;2022-07-31T11:08:03;26.00;94.50
57636;DHT22;43465;50.728;4.160;2022-07-31T11:10:29;25.80;94.70
57636;DHT22;43465;50.728;4.160;2022-07-31T11:13:06;25.70;94.90
57636;DHT22;43465;50.728;4.160;2022-07-31T11:15:32;25.60;95.20
57636;DHT22;43465;50.728;4.160;2022-07-31T11:18:10;25.70;95.60
57636;DHT22;43465;50.728;4.160;2022-07-31T11:20:36;25.90;95.40
57636;DHT22;43465;50.728;4.160;2022-07-31T11:23:04;26.00;94.80
57636;DHT22;43465;50.728;4.160;2022-07-31T11:25:32;26.20;95.20
57636;DHT22;43465;50.728;4.160;2022-07-31T11:28:16;26.30;94.40
57636;DHT22;43465;50.728;4.160;2022-07-31T11:30:54;26.50;94.90
57636;DHT22;43465;50.728;4.160;2022-07-31T11:33:43;26.60;94.10
57636;DHT22;43465;50.728;4.160;2022-07-31T11:36:13;26.60;93.50
57636;DHT22;43465;50.728;4.160;2022-07-31T11:38:41;26.50;93.70
57636;DHT22;43465;50.728;4.160;2022-07-31T11:41:08;26.40;94.40
57636;DHT22;43465;50.728;4.160;2022-07-31T11:43:34;26.20;94.00
57636;DHT22;43465;50.728;4.160;2022-07-31T11:46:02;26.20;94.70
57636;DHT22;43465;50.728;4.160;2022-07-31T11:48:28;26.20;94.50
57636;DHT22;43465;50.728;4.160;2022-07-31T11:50:57;26.20;94.80
57636;DHT22;43465;50.728;4.160;2022-07-31T11:53:24;26.30;95.00
57636;DHT22;43465;50.728;4.160;2022-07-31T11:55:53;26.30;95.00
57636;DHT22;43465;50.728;4.160;2022-07-31T11:58:21;26.30;94.80
57636;DHT22;43465;50.728;4.160;2022-07-31T12:03:14;26.10;94.80
57636;DHT22;43465;50.728;4.160;2022-07-31T12:05:47;26.00;95.10
57636;DHT22;43465;50.728;4.160;2022-07-31T12:08:13;26.00;94.90
57636;DHT22;43465;50.728;4.160;2022-07-31T12:10:39;26.00;95.30
57636;DHT22;43465;50.728;4.160;2022-07-31T12:13:13;26.00;96.20
57636;DHT22;43465;50.728;4.160;2022-07-31T12:15:39;26.10;95.60
57636;DHT22;43465;50.728;4.160;2022-07-31T12:18:05;26.20;95.30
57636;DHT22;43465;50.728;4.160;2022-07-31T12:20:31;26.30;95.70
57636;DHT22;43465;50.728;4.160;2022-07-31T12:23:01;26.60;95.30
57636;DHT22;43465;50.728;4.160;2022-07-31T12:25:27;26.70;94.70
57636;DHT22;43465;50.728;4.160;2022-07-31T12:28:03;26.80;94.60
57636;DHT22;43465;50.728;4.160;2022-07-31T12:30:28;27.00;94.80
57636;DHT22;43465;50.728;4.160;2022-07-31T12:33:06;27.10;94.40
57636;DHT22;43465;50.728;4.160;2022-07-31T12:35:40;27.10;93.90
57636;DHT22;43465;50.728;4.160;2022-07-31T12:38:06;27.00;93.70
57636;DHT22;43465;50.728;4.160;2022-07-31T12:40:33;26.80;93.40
57636;DHT22;43465;50.728;4.160;2022-07-31T12:42:58;26.50;93.90
57636;DHT22;43465;50.728;4.160;2022-07-31T12:47:57;26.30;94.60
57636;DHT22;43465;50.728;4.160;2022-07-31T12:50:24;26.30;95.10
57636;DHT22;43465;50.728;4.160;2022-07-31T12:52:51;26.30;94.90
57636;DHT22;43465;50.728;4.160;2022-07-31T12:55:17;26.30;95.50
57636;DHT22;43465;50.728;4.160;2022-07-31T12:57:43;26.30;94.70
57636;DHT22;43465;50.728;4.160;2022-07-31T13:00:09;26.30;95.00
57636;DHT22;43465;50.728;4.160;2022-07-31T13:02:35;26.30;95.20
57636;DHT22;43465;50.728;4.160;2022-07-31T13:05:01;26.30;95.80
57636;DHT22;43465;50.728;4.160;2022-07-31T13:07:26;26.60;95.80
57636;DHT22;43465;50.728;4.160;2022-07-31T13:09:52;26.70;94.70
57636;DHT22;43465;50.728;4.160;2022-07-31T13:12:18;26.80;94.30
57636;DHT22;43465;50.728;4.160;2022-07-31T13:14:43;26.90;94.20
57636;DHT22;43465;50.728;4.160;2022-07-31T13:17:09;26.90;94.50
57636;DHT22;43465;50.728;4.160;2022-07-31T13:19:35;27.00;94.90
57636;DHT22;43465;50.728;4.160;2022-07-31T13:22:00;27.10;94.40
57636;DHT22;43465;50.728;4.160;2022-07-31T13:24:26;27.30;93.60
57636;DHT22;43465;50.728;4.160;2022-07-31T13:26:52;27.40;94.00
57636;DHT22;43465;50.728;4.160;2022-07-31T13:29:18;27.50;93.20
57636;DHT22;43465;50.728;4.160;2022-07-31T13:31:45;27.40;93.20
57636;DHT22;43465;50.728;4.160;2022-07-31T13:34:11;27.30;92.90
57636;DHT22;43465;50.728;4.160;2022-07-31T13:36:37;27.20;93.10
57636;DHT22;43465;50.728;4.160;2022-07-31T13:39:02;27.00;92.90
57636;DHT22;43465;50.728;4.160;2022-07-31T13:41:29;26.90;94.00
57636;DHT22;43465;50.728;4.160;2022-07-31T13:43:59;26.80;93.40
57636;DHT22;43465;50.728;4.160;2022-07-31T13:46:26;26.80;93.10
57636;DHT22;43465;50.728;4.160;2022-07-31T13:48:54;26.80;93.60
57636;DHT22;43465;50.728;4.160;2022-07-31T13:51:21;26.80;93.60
57636;DHT22;43465;50.728;4.160;2022-07-31T13:53:47;26.80;93.50
57636;DHT22;43465;50.728;4.160;2022-07-31T13:56:14;26.70;93.50
57636;DHT22;43465;50.728;4.160;2022-07-31T13:58:40;26.80;93.40
57636;DHT22;43465;50.728;4.160;2022-07-31T14:01:06;26.80;93.00
57636;DHT22;43465;50.728;4.160;2022-07-31T14:03:31;26.70;92.90
57636;DHT22;43465;50.728;4.160;2022-07-31T14:05:57;26.70;93.00
57636;DHT22;43465;50.728;4.160;2022-07-31T14:08:24;26.70;93.00
57636;DHT22;43465;50.728;4.160;2022-07-31T14:10:50;26.70;93.30
57636;DHT22;43465;50.728;4.160;2022-07-31T14:13:17;26.70;92.80
57636;DHT22;43465;50.728;4.160;2022-07-31T14:15:44;26.90;92.80
57636;DHT22;43465;50.728;4.160;2022-07-31T14:18:10;27.00;92.50
57636;DHT22;43465;50.728;4.160;2022-07-31T14:20:36;27.00;92.90
57636;DHT22;43465;50.728;4.160;2022-07-31T14:23:02;27.10;92.50
57636;DHT22;43465;50.728;4.160;2022-07-31T14:25:29;27.10;92.40
57636;DHT22;43465;50.728;4.160;2022-07-31T14:27:55;27.00;92.30
57636;DHT22;43465;50.728;4.160;2022-07-31T14:30:20;26.90;92.80
57636;DHT22;43465;50.728;4.160;2022-07-31T14:32:47;27.00;93.30
57636;DHT22;43465;50.728;4.160;2022-07-31T14:35:13;27.00;92.50
57636;DHT22;43465;50.728;4.160;2022-07-31T14:37:39;27.10;92.50
57636;DHT22;43465;50.728;4.160;2022-07-31T14:40:06;27.20;92.40
57636;DHT22;43465;50.728;4.160;2022-07-31T14:42:33;27.30;92.40
57636;DHT22;43465;50.728;4.160;2022-07-31T14:44:59;27.20;92.30
57636;DHT22;43465;50.728;4.160;2022-07-31T14:47:27;27.10;92.20
57636;DHT22;43465;50.728;4.160;2022-07-31T14:49:53;26.90;92.00
57636;DHT22;43465;50.728;4.160;2022-07-31T14:52:18;26.70;92.50
57636;DHT22;43465;50.728;4.160;2022-07-31T14:54:44;26.60;92.70
57636;DHT22;43465;50.728;4.160;2022-07-31T14:57:10;26.50;93.10
57636;DHT22;43465;50.728;4.160;2022-07-31T14:59:35;26.60;93.00
57636;DHT22;43465;50.728;4.160;2022-07-31T15:02:01;26.60;92.40
57636;DHT22;43465;50.728;4.160;2022-07-31T15:04:26;26.60;92.40
57636;DHT22;43465;50.728;4.160;2022-07-31T15:06:52;26.60;92.80
57636;DHT22;43465;50.728;4.160;2022-07-31T15:09:18;26.50;92.40
57636;DHT22;43465;50.728;4.160;2022-07-31T15:11:44;26.50;92.60
57636;DHT22;43465;50.728;4.160;2022-07-31T15:14:13;26.50;92.70
57636;DHT22;43465;50.728;4.160;2022-07-31T15:16:40;26.40;93.30
57636;DHT22;43465;50.728;4.160;2022-07-31T15:19:05;26.40;92.80
57636;DHT22;43465;50.728;4.160;2022-07-31T15:21:31;26.30;92.90
57636;DHT22;43465;50.728;4.160;2022-07-31T15:23:57;26.30;92.80
57636;DHT22;43465;50.728;4.160;2022-07-31T15:26:22;26.20;93.00
57636;DHT22;43465;50.728;4.160;2022-07-31T15:28:48;26.10;93.10
57636;DHT22;43465;50.728;4.160;2022-07-31T15:31:14;26.10;93.10
57636;DHT22;43465;50.728;4.160;2022-07-31T15:33:41;26.20;93.10
57636;DHT22;43465;50.728;4.160;2022-07-31T15:36:06;26.20;93.60
57636;DHT22;43465;50.728;4.160;2022-07-31T15:38:32;26.20;93.20
57636;DHT22;43465;50.728;4.160;2022-07-31T15:40:58;26.20;93.20
57636;DHT22;43465;50.728;4.160;2022-07-31T15:43:23;26.20;93.20
57636;DHT22;43465;50.728;4.160;2022-07-31T15:45:49;26.00;93.10